createdAt,value
2018-02-07T00:01:28.676Z,19.07
2018-02-07T00:03:57.070Z,20.70
2018-02-07T00:06:25.649Z,17.90
2018-02-07T00:08:54.035Z,18.30
2018-02-07T00:11:22.410Z,18.70
2018-02-07T00:13:53.234Z,18.93
2018-02-07T00:16:21.852Z,20.57
2018-02-07T00:18:50.217Z,20.77
2018-02-07T00:21:18.606Z,19.20
2018-02-07T00:23:46.966Z,19.47
2018-02-07T00:26:15.361Z,21.00
2018-02-07T00:28:43.728Z,20.07
2018-02-07T00:31:12.087Z,21.40
2018-02-07T00:33:40.462Z,21.37
2018-02-07T00:36:08.839Z,22.47
2018-02-07T00:38:36.858Z,21.43
2018-02-07T00:41:05.995Z,22.83
2018-02-07T00:43:34.379Z,22.67
2018-02-07T00:46:02.755Z,22.77
2018-02-07T00:48:31.136Z,21.93
2018-02-07T00:50:59.837Z,21.03
2018-02-07T00:53:28.220Z,20.47
2018-02-07T00:55:56.707Z,21.80
2018-02-07T00:58:25.077Z,21.40
2018-02-07T01:00:53.467Z,21.83
2018-02-07T01:03:21.850Z,21.50
2018-02-07T01:05:50.316Z,20.60
2018-02-07T01:08:18.708Z,21.63
2018-02-07T01:10:47.074Z,21.20
2018-02-07T01:13:15.442Z,21.17
2018-02-07T01:15:44.415Z,22.93
2018-02-07T01:18:12.839Z,21.50
2018-02-07T01:20:41.309Z,21.20
2018-02-07T01:23:09.668Z,21.80
2018-02-07T01:25:38.066Z,22.47
2018-02-07T01:28:06.433Z,20.00
2018-02-07T01:30:34.819Z,23.00
2018-02-07T01:33:03.298Z,21.40
2018-02-07T01:35:31.702Z,22.27
2018-02-07T01:38:00.868Z,21.13
2018-02-07T01:40:29.273Z,21.10
2018-02-07T01:42:57.712Z,23.80
2018-02-07T01:45:26.293Z,23.53
2018-02-07T01:47:54.686Z,21.83
2018-02-07T01:50:23.073Z,21.67
2018-02-07T01:52:51.665Z,22.67
2018-02-07T01:55:20.181Z,22.00
2018-02-07T01:57:48.657Z,23.37
2018-02-07T02:00:17.786Z,24.53
2018-02-07T02:02:46.431Z,25.27
2018-02-07T02:05:15.602Z,24.63
2018-02-07T02:07:43.970Z,23.80
2018-02-07T02:10:12.551Z,23.10
2018-02-07T02:12:41.018Z,21.80
2018-02-07T02:15:09.430Z,23.43
2018-02-07T02:17:38.429Z,21.80
2018-02-07T02:20:07.726Z,21.93
2018-02-07T02:22:36.869Z,21.70
2018-02-07T02:25:05.250Z,22.80
2018-02-07T02:27:33.619Z,22.10
2018-02-07T02:30:02.634Z,23.27
2018-02-07T02:32:31.630Z,23.20
2018-02-07T02:35:00.147Z,23.67
2018-02-07T02:37:29.326Z,24.40
2018-02-07T02:39:57.820Z,22.83
2018-02-07T02:42:26.186Z,23.97
2018-02-07T02:44:54.606Z,24.50
2018-02-07T02:47:23.250Z,25.37
2018-02-07T02:49:51.671Z,24.57
2018-02-07T02:52:20.132Z,22.97
2018-02-07T02:54:48.549Z,25.73
2018-02-07T02:57:16.934Z,23.13
2018-02-07T02:59:45.323Z,23.33
2018-02-07T03:02:13.866Z,22.43
2018-02-07T03:04:42.841Z,22.50
2018-02-07T03:07:11.947Z,22.97
2018-02-07T03:09:40.333Z,23.67
2018-02-07T03:12:08.842Z,23.10
2018-02-07T03:14:37.216Z,23.93
2018-02-07T03:17:05.610Z,23.83
2018-02-07T03:19:34.038Z,24.03
2018-02-07T03:22:02.399Z,24.50
2018-02-07T03:24:31.541Z,24.40
2018-02-07T03:26:59.917Z,24.10
2018-02-07T03:29:28.350Z,23.00
2018-02-07T03:31:57.502Z,23.47
2018-02-07T03:34:25.871Z,24.00
2018-02-07T03:36:54.252Z,24.27
2018-02-07T03:39:22.689Z,24.70
2018-02-07T03:41:51.868Z,24.63
2018-02-07T03:44:20.447Z,22.27
2018-02-07T03:46:49.046Z,23.50
2018-02-07T03:49:17.446Z,24.97
2018-02-07T03:51:45.836Z,24.67
2018-02-07T03:54:14.199Z,23.57
2018-02-07T03:56:43.360Z,24.20
2018-02-07T03:59:11.740Z,24.87
2018-02-07T04:01:40.150Z,24.60
2018-02-07T04:04:09.291Z,23.90
2018-02-07T04:06:37.689Z,24.60
2018-02-07T04:09:06.040Z,23.83
2018-02-07T04:11:34.414Z,23.67
2018-02-07T04:14:02.778Z,24.80
2018-02-07T04:16:31.188Z,23.87
2018-02-07T04:18:59.382Z,24.67
2018-02-07T04:21:27.859Z,24.80
2018-02-07T04:23:56.431Z,26.40
2018-02-07T04:26:24.985Z,26.33
2018-02-07T04:28:53.378Z,25.10
2018-02-07T04:31:21.766Z,25.47
2018-02-07T04:33:49.835Z,25.30
2018-02-07T04:36:18.170Z,25.67
2018-02-07T04:38:46.580Z,26.57
2018-02-07T04:41:15.038Z,25.33
2018-02-07T04:43:43.435Z,26.77
2018-02-07T04:46:11.794Z,26.20
2018-02-07T04:48:40.967Z,26.57
2018-02-07T04:51:10.573Z,25.40
2018-02-07T04:53:40.015Z,26.20
2018-02-07T04:56:08.394Z,24.77
2018-02-07T04:58:36.648Z,27.00
2018-02-07T05:01:05.032Z,26.73
2018-02-07T05:03:33.400Z,25.33
2018-02-07T05:06:01.889Z,25.70
2018-02-07T05:08:30.276Z,28.20
2018-02-07T05:10:58.744Z,28.63
2018-02-07T05:13:27.190Z,26.90
2018-02-07T05:15:56.525Z,24.60
2018-02-07T05:18:24.910Z,27.17
2018-02-07T05:20:53.330Z,25.30
2018-02-07T05:23:21.807Z,23.93
2018-02-07T05:25:50.341Z,27.60
2018-02-07T05:28:18.708Z,24.73
2018-02-07T05:30:47.863Z,25.13
2018-02-07T05:33:16.235Z,27.77
2018-02-07T05:35:44.610Z,26.87
2018-02-07T05:38:12.993Z,26.03
2018-02-07T05:40:41.431Z,27.90
2018-02-07T05:43:09.823Z,27.60
2018-02-07T05:45:38.180Z,29.63
2018-02-07T05:48:06.698Z,28.77
2018-02-07T05:50:35.264Z,30.07
2018-02-07T05:53:03.690Z,27.47
2018-02-07T05:55:32.220Z,27.90
2018-02-07T05:58:00.738Z,29.00
2018-02-07T06:00:29.113Z,25.27
2018-02-07T06:02:57.538Z,26.83
2018-02-07T06:05:26.862Z,26.70
2018-02-07T06:07:55.264Z,28.60
2018-02-07T06:10:23.905Z,25.93
2018-02-07T06:12:52.566Z,28.67
2018-02-07T06:15:22.018Z,26.03
2018-02-07T06:17:50.396Z,26.87
2018-02-07T06:20:18.937Z,27.17
2018-02-07T06:22:48.126Z,26.53
2018-02-07T06:25:17.271Z,27.30
2018-02-07T06:27:45.678Z,27.93
2018-02-07T06:30:14.057Z,30.10
2018-02-07T06:32:42.445Z,27.40
2018-02-07T06:35:10.923Z,26.90
2018-02-07T06:37:39.471Z,30.30
2018-02-07T06:40:07.833Z,28.67
2018-02-07T06:42:36.487Z,28.77
2018-02-07T06:45:05.792Z,29.00
2018-02-07T06:47:35.163Z,28.13
2018-02-07T06:50:03.518Z,30.57
2018-02-07T06:52:31.909Z,29.03
2018-02-07T06:55:00.447Z,30.40
2018-02-07T06:57:29.136Z,30.27
2018-02-07T06:59:57.563Z,29.00
2018-02-07T07:02:25.928Z,31.70
2018-02-07T07:04:54.458Z,29.47
2018-02-07T07:07:23.597Z,28.40
2018-02-07T07:09:51.957Z,32.03
2018-02-07T07:12:20.410Z,29.17
2018-02-07T07:14:49.572Z,29.83
2018-02-07T07:17:18.044Z,31.07
2018-02-07T07:19:46.423Z,30.30
2018-02-07T07:22:14.446Z,29.33
2018-02-07T07:24:42.841Z,29.67
2018-02-07T07:27:11.226Z,28.37
2018-02-07T07:29:40.563Z,29.70
2018-02-07T07:32:08.940Z,29.60
2018-02-07T07:34:37.494Z,29.57
2018-02-07T07:37:05.845Z,27.57
2018-02-07T07:39:34.390Z,30.40
2018-02-07T07:42:02.849Z,31.73
2018-02-07T07:44:31.401Z,28.63
2018-02-07T07:46:59.742Z,33.20
2018-02-07T07:49:29.078Z,29.97
2018-02-07T07:51:57.447Z,30.60
2018-02-07T07:54:25.808Z,31.50
2018-02-07T07:56:54.245Z,31.40
2018-02-07T07:59:22.622Z,33.13
2018-02-07T08:01:50.993Z,28.80
2018-02-07T08:04:19.648Z,31.73
2018-02-07T08:06:48.067Z,31.37
2018-02-07T08:09:16.433Z,28.40
2018-02-07T08:11:45.312Z,30.57
2018-02-07T08:14:13.663Z,30.83
2018-02-07T08:16:42.121Z,30.80
2018-02-07T08:19:11.234Z,30.77
2018-02-07T08:21:39.652Z,31.00
2018-02-07T08:24:08.004Z,30.03
2018-02-07T08:26:36.379Z,30.50
2018-02-07T08:29:05.516Z,29.07
2018-02-07T08:31:33.669Z,30.00
2018-02-07T08:34:02.450Z,32.53
2018-02-07T08:36:31.168Z,30.13
2018-02-07T08:38:59.319Z,31.67
2018-02-07T08:41:27.661Z,29.70
2018-02-07T08:43:56.030Z,31.87
2018-02-07T08:46:25.268Z,32.30
2018-02-07T08:48:53.654Z,32.37
2018-02-07T08:51:22.009Z,32.10
2018-02-07T08:53:50.482Z,32.77
2018-02-07T08:56:18.821Z,32.17
2018-02-07T08:58:47.955Z,33.27
2018-02-07T09:01:16.378Z,32.33
2018-02-07T09:03:45.251Z,31.60
2018-02-07T09:06:13.882Z,33.13
2018-02-07T09:08:43.027Z,32.57
2018-02-07T09:11:11.414Z,30.73
2018-02-07T09:13:39.929Z,32.67
2018-02-07T09:16:09.277Z,33.83
2018-02-07T09:18:37.809Z,31.93
2018-02-07T09:21:06.171Z,32.30
2018-02-07T09:23:34.675Z,32.57
2018-02-07T09:26:03.950Z,34.63
2018-02-07T09:28:32.568Z,34.00
2018-02-07T09:31:02.077Z,34.50
2018-02-07T09:33:31.369Z,32.20
2018-02-07T09:35:59.956Z,32.40
2018-02-07T09:38:29.178Z,31.90
2018-02-07T09:40:57.574Z,34.00
2018-02-07T09:43:25.907Z,34.60
2018-02-07T09:45:55.750Z,32.93
2018-02-07T09:48:24.272Z,31.50
2018-02-07T09:50:52.662Z,33.37
2018-02-07T09:53:21.813Z,34.03
2018-02-07T09:55:50.332Z,33.90
2018-02-07T09:58:18.716Z,33.13
2018-02-07T10:00:47.064Z,35.00
2018-02-07T10:03:15.542Z,31.70
2018-02-07T10:05:43.914Z,32.43
2018-02-07T10:08:12.352Z,35.93
2018-02-07T10:10:40.892Z,33.57
2018-02-07T10:13:09.336Z,33.37
2018-02-07T10:15:37.681Z,35.37
2018-02-07T10:18:06.831Z,34.60
2018-02-07T10:20:35.203Z,34.53
2018-02-07T10:23:03.575Z,34.03
2018-02-07T10:25:31.935Z,34.20
2018-02-07T10:28:00.400Z,33.70
2018-02-07T10:30:29.573Z,34.10
2018-02-07T10:32:58.748Z,36.77
2018-02-07T10:35:27.267Z,34.93
2018-02-07T10:37:56.409Z,34.80
2018-02-07T10:40:25.115Z,32.43
2018-02-07T10:42:53.500Z,35.20
2018-02-07T10:45:21.906Z,32.80
2018-02-07T10:47:51.432Z,35.10
2018-02-07T10:50:20.024Z,34.27
2018-02-07T10:52:48.584Z,34.67
2018-02-07T10:55:16.979Z,33.90
2018-02-07T10:57:45.362Z,36.57
2018-02-07T11:00:14.054Z,34.57
2018-02-07T11:02:42.442Z,34.40
2018-02-07T11:05:10.854Z,33.97
2018-02-07T11:07:39.201Z,36.30
2018-02-07T11:10:07.576Z,37.33
2018-02-07T11:12:35.940Z,34.83
2018-02-07T11:15:04.278Z,36.70
2018-02-07T11:17:33.409Z,33.17
2018-02-07T11:20:01.750Z,33.83
2018-02-07T11:22:30.887Z,36.00
2018-02-07T11:24:59.262Z,37.00
2018-02-07T11:27:27.611Z,35.13
2018-02-07T11:29:56.737Z,36.13
2018-02-07T11:32:25.104Z,33.40
2018-02-07T11:34:54.590Z,35.03
2018-02-07T11:37:23.744Z,36.33
2018-02-07T11:39:52.167Z,34.20
2018-02-07T11:42:20.526Z,35.73
2018-02-07T11:44:49.780Z,37.23
2018-02-07T11:47:18.162Z,33.97
2018-02-07T11:49:46.517Z,34.20
2018-02-07T11:52:14.908Z,34.57
2018-02-07T11:54:43.286Z,36.47
2018-02-07T11:57:11.652Z,33.70
2018-02-07T11:59:40.141Z,34.60
2018-02-07T12:02:08.620Z,33.20
2018-02-07T12:04:38.477Z,33.40
2018-02-07T12:07:07.001Z,33.60
2018-02-07T12:09:35.346Z,35.40
2018-02-07T12:12:04.490Z,35.97
2018-02-07T12:14:33.449Z,33.20
2018-02-07T12:17:02.696Z,32.97
2018-02-07T12:19:31.080Z,34.27
2018-02-07T12:21:59.500Z,34.03
2018-02-07T12:24:28.046Z,33.10
2018-02-07T12:26:56.453Z,35.20
2018-02-07T12:29:25.598Z,35.40
2018-02-07T12:31:54.038Z,32.70
2018-02-07T12:34:22.629Z,36.47
2018-02-07T12:36:51.895Z,34.67
2018-02-07T12:39:20.308Z,35.07
2018-02-07T12:41:48.990Z,35.30
2018-02-07T12:44:17.594Z,34.57
2018-02-07T12:46:45.984Z,35.33
2018-02-07T12:49:14.333Z,34.60
2018-02-07T12:51:47.322Z,32.20
2018-02-07T12:54:15.679Z,33.67
2018-02-07T12:56:44.950Z,31.77
2018-02-07T12:59:13.522Z,32.33
2018-02-07T13:01:41.917Z,32.93
2018-02-07T13:04:10.343Z,32.23
2018-02-07T13:06:38.699Z,31.50
2018-02-07T13:09:07.853Z,32.00
2018-02-07T13:11:36.407Z,30.53
2018-02-07T13:14:04.936Z,31.93
2018-02-07T13:16:33.409Z,30.80
2018-02-07T13:19:01.778Z,32.77
2018-02-07T13:21:30.752Z,29.50
2018-02-07T13:23:59.103Z,32.17
2018-02-07T13:26:27.500Z,31.00
2018-02-07T13:28:56.055Z,31.10
2018-02-07T13:31:25.212Z,32.30
2018-02-07T13:33:53.592Z,29.50
2018-02-07T13:36:21.634Z,29.43
2018-02-07T13:38:50.018Z,28.77
2018-02-07T13:41:18.439Z,28.27
2018-02-07T13:43:47.580Z,30.90
2018-02-07T13:46:15.972Z,29.00
2018-02-07T13:48:44.343Z,28.50
2018-02-07T13:51:12.984Z,28.20
2018-02-07T13:53:42.165Z,26.67
2018-02-07T13:56:10.644Z,28.00
2018-02-07T13:58:39.859Z,26.73
2018-02-07T14:01:08.433Z,27.73
2018-02-07T14:03:37.576Z,26.83
2018-02-07T14:06:06.069Z,26.00
2018-02-07T14:08:34.454Z,24.97
2018-02-07T14:11:02.818Z,25.63
2018-02-07T14:13:31.182Z,25.97
2018-02-07T14:15:59.561Z,24.63
2018-02-07T14:18:28.116Z,24.80
2018-02-07T14:20:57.392Z,25.10
2018-02-07T14:23:25.835Z,23.73
2018-02-07T14:25:54.288Z,23.17
2018-02-07T14:28:22.779Z,23.13
2018-02-07T14:30:51.362Z,21.17
2018-02-07T14:33:19.743Z,22.40
2018-02-07T14:35:48.166Z,20.97
2018-02-07T14:38:16.527Z,19.90
2018-02-07T14:40:44.932Z,20.47
2018-02-07T14:43:13.376Z,21.53
2018-02-07T14:45:41.761Z,21.93
2018-02-07T14:48:10.123Z,21.67
2018-02-07T14:50:38.489Z,20.90
2018-02-07T14:53:06.873Z,20.20
2018-02-07T14:55:35.242Z,20.67
2018-02-07T14:58:03.719Z,20.70
2018-02-07T15:00:32.114Z,19.07
2018-02-07T15:03:00.594Z,20.43
2018-02-07T15:05:28.996Z,21.90
2018-02-07T15:07:57.375Z,19.40
2018-02-07T15:10:25.842Z,21.40
2018-02-07T15:12:53.875Z,21.57
2018-02-07T15:15:23.014Z,22.70
2018-02-07T15:17:51.386Z,22.30
2018-02-07T15:20:19.728Z,22.33
2018-02-07T15:22:48.093Z,21.20
2018-02-07T15:25:17.215Z,20.53
2018-02-07T15:27:45.596Z,22.77
2018-02-07T15:30:13.971Z,23.23
2018-02-07T15:32:42.478Z,21.93
2018-02-07T15:35:10.954Z,24.20
2018-02-07T15:37:39.346Z,21.17
2018-02-07T15:40:07.857Z,21.33
2018-02-07T15:42:36.891Z,21.90
2018-02-07T15:45:05.565Z,21.03
2018-02-07T15:47:33.903Z,22.03
2018-02-07T15:50:02.266Z,20.63
2018-02-07T15:52:30.610Z,22.43
2018-02-07T15:54:59.498Z,22.60
2018-02-07T15:57:27.971Z,23.03
2018-02-07T15:59:56.359Z,21.40
2018-02-07T16:02:25.242Z,20.80
2018-02-07T16:04:53.731Z,21.10
2018-02-07T16:07:22.260Z,21.40
2018-02-07T16:09:51.064Z,21.53
2018-02-07T16:12:20.343Z,21.47
2018-02-07T16:14:48.725Z,21.07
2018-02-07T16:17:17.710Z,21.70
2018-02-07T16:19:46.073Z,20.90
2018-02-07T16:22:14.450Z,20.20
2018-02-07T16:24:43.582Z,19.90
2018-02-07T16:27:12.735Z,21.03
2018-02-07T16:29:41.098Z,19.37
2018-02-07T16:32:09.818Z,21.73
2018-02-07T16:34:38.207Z,20.30
2018-02-07T16:37:07.377Z,19.97
2018-02-07T16:39:35.748Z,21.23
2018-02-07T16:42:04.142Z,21.13
2018-02-07T16:44:33.403Z,20.80
2018-02-07T16:47:02.720Z,21.67
2018-02-07T16:49:31.688Z,20.90
2018-02-07T16:52:00.040Z,20.43
2018-02-07T16:54:29.255Z,19.63
2018-02-07T16:56:57.637Z,19.80
2018-02-07T16:59:26.004Z,29.43
2018-02-07T17:01:55.164Z,22.97
2018-02-07T17:04:23.786Z,18.90
2018-02-07T17:06:52.289Z,21.20
2018-02-07T17:09:20.738Z,22.17
2018-02-07T17:11:49.868Z,21.47
2018-02-07T17:14:18.277Z,21.90
2018-02-07T17:16:46.639Z,22.27
2018-02-07T17:19:15.159Z,21.20
2018-02-07T17:21:43.595Z,20.23
2018-02-07T17:24:11.958Z,21.17
2018-02-07T17:26:40.635Z,22.67
2018-02-07T17:29:09.021Z,21.37
2018-02-07T17:31:37.606Z,20.60
2018-02-07T17:34:06.122Z,23.80
2018-02-07T17:36:34.524Z,22.40
2018-02-07T17:39:03.045Z,24.07
2018-02-07T17:41:31.703Z,23.10
2018-02-07T17:44:00.809Z,22.30
2018-02-07T17:46:29.344Z,19.87
2018-02-07T17:48:57.704Z,20.47
2018-02-07T17:51:26.115Z,21.70
2018-02-07T17:53:54.643Z,22.70
2018-02-07T17:56:23.021Z,21.13
2018-02-07T17:58:51.514Z,21.13
2018-02-07T18:01:19.879Z,22.00
2018-02-07T18:03:48.256Z,22.00
2018-02-07T18:06:16.428Z,20.10
2018-02-07T18:08:44.790Z,20.57
2018-02-07T18:11:13.136Z,21.07
2018-02-07T18:13:42.276Z,20.57
2018-02-07T18:16:10.621Z,21.20
2018-02-07T18:18:39.759Z,20.43
2018-02-07T18:21:08.124Z,20.43
2018-02-07T18:23:36.597Z,20.70
2018-02-07T18:26:05.096Z,19.73
2018-02-07T18:28:33.527Z,20.30
2018-02-07T18:31:01.862Z,19.83
2018-02-07T18:33:30.249Z,20.90
2018-02-07T18:35:58.642Z,20.03
2018-02-07T18:38:27.034Z,19.70
2018-02-07T18:40:55.441Z,19.83
2018-02-07T18:43:24.651Z,19.33
2018-02-07T18:45:53.078Z,20.00
2018-02-07T18:48:22.929Z,20.03
2018-02-07T18:50:51.396Z,21.37
2018-02-07T18:53:20.563Z,19.87
2018-02-07T18:55:48.906Z,19.33
2018-02-07T18:58:17.263Z,18.63
2018-02-07T19:00:45.617Z,20.13
2018-02-07T19:03:14.013Z,20.97
2018-02-07T19:05:43.851Z,19.50
2018-02-07T19:08:12.222Z,20.10
2018-02-07T19:10:40.573Z,19.50
2018-02-07T19:13:09.718Z,19.50
2018-02-07T19:15:38.064Z,20.87
2018-02-07T19:18:06.429Z,19.13
2018-02-07T19:20:35.552Z,20.10
2018-02-07T19:23:03.917Z,19.10
2018-02-07T19:25:32.395Z,17.97
2018-02-07T19:28:00.750Z,18.77
2018-02-07T19:30:29.914Z,19.40
2018-02-07T19:32:58.388Z,20.50
2018-02-07T19:35:26.770Z,19.70
2018-02-07T19:37:55.195Z,19.70
2018-02-07T19:40:24.649Z,19.60
2018-02-07T19:42:53.731Z,19.27
2018-02-07T19:45:22.271Z,19.83
2018-02-07T19:47:51.960Z,18.53
2018-02-07T19:52:55.150Z,19.63
2018-02-07T19:55:23.604Z,18.33
2018-02-07T19:57:52.014Z,18.70
2018-02-07T20:00:20.399Z,19.17
2018-02-07T20:02:48.853Z,19.33
2018-02-07T20:05:17.361Z,19.33
2018-02-07T20:07:46.963Z,19.70
2018-02-07T20:10:15.537Z,19.90
2018-02-07T20:12:43.913Z,20.00
2018-02-07T20:15:12.300Z,19.60
2018-02-07T20:17:40.750Z,20.13
2018-02-07T20:20:09.268Z,20.40
2018-02-07T20:22:37.870Z,19.87
2018-02-07T20:25:07.010Z,19.53
2018-02-07T20:27:35.532Z,20.20
2018-02-07T20:30:04.737Z,19.77
2018-02-07T20:32:33.900Z,19.63
2018-02-07T20:35:02.285Z,20.07
2018-02-07T20:37:30.653Z,20.67
2018-02-07T20:39:59.050Z,19.83
2018-02-07T20:42:27.479Z,22.43
2018-02-07T20:44:56.293Z,21.37
2018-02-07T20:47:25.431Z,20.33
2018-02-07T20:49:54.627Z,20.03
2018-02-07T20:52:23.899Z,21.13
2018-02-07T20:54:52.328Z,19.97
2018-02-07T20:57:20.705Z,19.87
2018-02-07T20:59:50.083Z,19.47
2018-02-07T21:02:19.559Z,19.10
2018-02-07T21:04:48.271Z,19.67
2018-02-07T21:07:17.462Z,20.50
2018-02-07T21:09:45.912Z,21.17
2018-02-07T21:12:14.675Z,21.20
2018-02-07T21:14:43.079Z,19.20
2018-02-07T21:17:11.529Z,19.40
2018-02-07T21:19:39.915Z,20.07
2018-02-07T21:22:08.271Z,20.53
2018-02-07T21:24:36.775Z,19.83
2018-02-07T21:27:05.156Z,19.70
2018-02-07T21:29:33.567Z,21.40
2018-02-07T21:32:01.948Z,19.13
2018-02-07T21:34:30.328Z,21.73
2018-02-07T21:36:58.695Z,21.20
2018-02-07T21:39:26.555Z,20.10
2018-02-07T21:41:55.129Z,20.30
2018-02-07T21:44:23.446Z,20.90
2018-02-07T21:46:51.835Z,20.17
2018-02-07T21:49:20.961Z,21.50
2018-02-07T21:51:49.612Z,19.50
2018-02-07T21:54:18.781Z,22.37
2018-02-07T21:56:47.209Z,20.93
2018-02-07T21:59:15.636Z,19.90
2018-02-07T22:01:44.022Z,22.23
2018-02-07T22:04:12.406Z,21.73
2018-02-07T22:06:41.603Z,21.07
2018-02-07T22:09:09.970Z,20.70
2018-02-07T22:11:38.352Z,22.87
2018-02-07T22:14:06.880Z,21.27
2018-02-07T22:16:35.340Z,20.97
2018-02-07T22:19:03.894Z,21.50
2018-02-07T22:21:32.414Z,21.17
2018-02-07T22:24:00.835Z,21.77
2018-02-07T22:26:29.447Z,21.67
2018-02-07T22:28:57.847Z,22.53
2018-02-07T22:31:26.367Z,20.40
2018-02-07T22:33:54.743Z,20.47
2018-02-07T22:36:23.165Z,20.67
2018-02-07T22:38:51.565Z,21.73
2018-02-07T22:41:19.939Z,20.97
2018-02-07T22:43:48.359Z,22.77
2018-02-07T22:46:16.713Z,22.17
2018-02-07T22:48:45.174Z,20.70
2018-02-07T22:51:14.996Z,22.87
2018-02-07T22:53:43.419Z,22.73
2018-02-07T22:56:11.824Z,21.73
2018-02-07T22:58:40.489Z,22.17
2018-02-07T23:01:08.892Z,21.43
2018-02-07T23:03:37.463Z,21.53
2018-02-07T23:06:05.844Z,21.40
2018-02-07T23:08:34.237Z,22.00
2018-02-07T23:11:03.428Z,21.90
2018-02-07T23:13:31.824Z,23.20
2018-02-07T23:16:00.986Z,22.13
2018-02-07T23:18:29.573Z,20.43
2018-02-07T23:20:57.921Z,23.47
2018-02-07T23:23:26.291Z,23.23
2018-02-07T23:25:54.848Z,21.47
2018-02-07T23:28:24.090Z,23.33
2018-02-07T23:30:52.514Z,23.77
2018-02-07T23:33:21.823Z,22.07
2018-02-07T23:35:50.946Z,24.30
2018-02-07T23:38:19.452Z,21.60
2018-02-07T23:40:47.896Z,23.87
2018-02-07T23:43:16.283Z,23.17
2018-02-07T23:45:44.639Z,22.77
2018-02-07T23:48:13.064Z,21.23
2018-02-07T23:50:41.467Z,21.50
2018-02-07T23:53:09.954Z,22.83
2018-02-07T23:55:38.292Z,21.20
2018-02-07T23:58:06.668Z,22.37
